FW1712 Weather Reports


Display with metric or nautical units.
time (UTC)temp
F
wind
direction
speed
MPH
gust
MPH
rain 1hr
in
rain 24hr
in
rain mn
in
humidity
%
barometer
mb
20220706075824 76 211 1.0 3.0 0.00 0.00 0.00 62
20220706074817 76 218 2.0 3.0 0.00 0.00 0.00 62
20220706073826 77 180 0.0 1.0 0.00 0.00 0.00 61
20220706072816 77 203 1.0 2.0 0.00 0.00 0.00 60
20220706071822 77 225 0.0 2.0 0.00 0.00 0.00 59
20220706070818 77 203 1.0 2.0 0.00 0.00 0.00 58
20220706065817 78 209 2.0 2.0 0.00 0.00 0.00 57
20220706064833 79 180 3.0 4.0 0.00 0.00 0.00 56
20220706063826 79 158 4.0 4.0 0.00 0.00 0.00 55
20220706062829 79 180 3.0 3.0 0.00 0.00 0.00 54
20220706061819 80 158 3.0 4.0 0.00 0.00 0.00 53
20220706060825 81 126 4.0 5.0 0.00 0.00 0.00 52
20220706055822 81 113 5.0 6.0 0.00 0.00 0.00 51
20220706054820 81 130 6.0 7.0 0.00 0.00 0.00 49
20220706053816 81 113 5.0 6.0 0.00 0.00 0.00 49
20220706052817 81 113 4.0 5.0 0.00 0.00 0.00 49
20220706051825 81 122 5.0 6.0 0.00 0.00 0.00 49
20220706050817 80 127 4.0 4.0 0.00 0.00 0.00 49
20220706045824 81 142 4.0 4.0 0.00 0.00 0.00 49
20220706044817 81 151 2.0 3.0 0.00 0.00 0.00 48
20220706043820 82 158 3.0 4.0 0.00 0.00 0.00 48
20220706042816 82 142 4.0 4.0 0.00 0.00 0.00 48
20220706041825 82 158 3.0 4.0 0.00 0.00 0.00 48
20220706040817 82 172 3.0 3.0 0.00 0.00 0.00 48
20220706035819 82 0.0 0.0 0.00 0.00 0.00 48
20220706034817 83 180 3.0 3.0 0.00 0.00 0.00 47
20220706033825 83 158 3.0 3.0 0.00 0.00 0.00 48
20220706032817 83 158 2.0 2.0 0.00 0.00 0.00 49
20220706031821 84 172 2.0 2.0 0.00 0.00 0.00 49
20220706030817 84 0.0 0.0 0.00 0.00 0.00 49
20220706025824 83 238 1.0 2.0 0.00 0.00 0.00 53
20220706024818 84 0.0 0.0 0.00 0.00 0.00 44
20220706023824 85 0.0 0.0 0.00 0.00 0.00 43
20220706022829 85 195 5.0 5.0 0.00 0.00 0.00 43
20220706021824 85 187 4.0 4.0 0.00 0.00 0.00 43
20220706020824 86 188 5.0 6.0 0.00 0.00 0.00 43
20220706015823 85 195 4.0 5.0 0.00 0.00 0.00 44
20220706014820 85 180 0.0 2.0 0.00 0.00 0.00 51
20220706013818 85 0.0 0.0 0.00 0.00 0.00 52
20220706012827 85 203 1.0 2.0 0.00 0.00 0.00 52
20220706011825 84 210 3.0 3.0 0.00 0.00 0.00 52
20220706010817 85 257 5.0 8.0 0.00 0.00 0.00 51
20220706005827 85 212 4.0 5.0 0.00 0.00 0.00 51
20220706004817 84 220 7.0 9.0 0.00 0.00 0.00 51
20220706003821 85 216 9.0 10.0 0.00 0.00 0.00 51
20220706002817 85 198 9.0 10.0 0.00 0.00 0.00 51
20220706001824 86 202 13.0 16.0 0.00 0.00 0.00 50
20220706000817 88 208 19.0 22.0 0.00 0.00 0.00 46
20220705235823 94 187 18.0 23.0 0.00 0.00 0.00 35
20220705234818 96 158 7.0 9.0 0.00 0.00 0.00 33
20220705233820 96 158 9.0 11.0 0.00 0.00 0.00 33
20220705232816 96 150 12.0 13.0 0.00 0.00 0.00 32
20220705231816 96 158 7.0 8.0 0.00 0.00 0.00 32
20220705230825 96 147 7.0 9.0 0.00 0.00 0.00 33
20220705225825 96 154 11.0 13.0 0.00 0.00 0.00 33
20220705224821 97 151 12.0 17.0 0.00 0.00 0.00 32
20220705223827 100 113 12.0 13.0 0.00 0.00 0.00 30
20220705222818 99 151 9.0 12.0 0.00 0.00 0.00 30
20220705221822 101 120 9.0 10.0 0.00 0.00 0.00 30
20220705220821 102 128 9.0 11.0 0.00 0.00 0.00 29
20220705215819 102 97 6.0 8.0 0.00 0.00 0.00 29
20220705214833 102 118 14.0 17.0 0.00 0.00 0.00 29
20220705213820 101 134 8.0 9.0 0.00 0.00 0.00 30
20220705212828 102 147 14.0 17.0 0.00 0.00 0.00 29
20220705211818 102 150 10.0 11.0 0.00 0.00 0.00 29
20220705210824 102 119 8.0 9.0 0.00 0.00 0.00 29
20220705205821 102 113 9.0 12.0 0.00 0.00 0.00 29
20220705204817 100 152 8.0 13.0 0.00 0.00 0.00 31
20220705203825 100 158 6.0 9.0 0.00 0.00 0.00 30
20220705202816 102 144 9.0 12.0 0.00 0.00 0.00 30
20220705201829 101 135 11.0 14.0 0.00 0.00 0.00 31
20220705200817 100 150 7.0 11.0 0.00 0.00 0.00 32
20220705195824 102 128 9.0 12.0 0.00 0.00 0.00 29
20220705194817 101 119 8.0 9.0 0.00 0.00 0.00 30
20220705192817 101 124 10.0 14.0 0.00 0.00 0.00 32
20220705191820 98 162 9.0 13.0 0.00 0.00 0.00 34
20220705190817 100 128 9.0 11.0 0.00 0.00 0.00 32
20220705185826 100 133 10.0 11.0 0.00 0.00 0.00 33
20220705183825 97 180 10.0 13.0 0.00 0.00 0.00 37
20220705182823 98 158 10.0 12.0 0.00 0.00 0.00 36
20220705181819 98 113 12.0 13.0 0.00 0.00 0.00 37
20220705180819 97 196 8.0 9.0 0.00 0.00 0.00 36
20220705175828 98 107 8.0 10.0 0.00 0.00 0.00 37
20220705174830 94 152 8.0 10.0 0.00 0.00 0.00 39
20220705173824 94 152 10.0 13.0 0.00 0.00 0.00 40
20220705172825 95 158 9.0 12.0 0.00 0.00 0.00 39
20220705171822 95 128 14.0 19.0 0.00 0.00 0.00 39
20220705170820 94 169 9.0 12.0 0.00 0.00 0.00 41
20220705165818 92 138 9.0 13.0 0.00 0.00 0.00 42
20220705164827 94 137 13.0 19.0 0.00 0.00 0.00 41
20220705163824 92 170 8.0 11.0 0.00 0.00 0.00 42
20220705162817 92 141 11.0 14.0 0.00 0.00 0.00 43
20220705161824 92 135 13.0 15.0 0.00 0.00 0.00 44
20220705160817 91 113 11.0 13.0 0.00 0.00 0.00 46
20220705155821 89 158 13.0 17.0 0.00 0.00 0.00 47
20220705154818 89 149 10.0 12.0 0.00 0.00 0.00 48
20220705153828 88 146 11.0 13.0 0.00 0.00 0.00 50
20220705152816 87 136 14.0 17.0 0.00 0.00 0.00 51
20220705151822 87 155 14.0 16.0 0.00 0.00 0.00 51
20220705150817 86 151 14.0 17.0 0.00 0.00 0.00 53
20220705145818 86 165 14.0 16.0 0.00 0.00 0.00 54
20220705144821 85 141 14.0 16.0 0.00 0.00 0.00 55
20220705143818 85 135 14.0 17.0 0.00 0.00 0.00 55
20220705142824 84 150 15.0 17.0 0.00 0.00 0.00 56
20220705141826 84 162 13.0 16.0 0.00 0.00 0.00 57
20220705140820 83 158 15.0 18.0 0.00 0.00 0.00 58
20220705135825 82 150 16.0 17.0 0.00 0.00 0.00 59
20220705134817 82 144 11.0 13.0 0.00 0.00 0.00 61
20220705133822 81 145 13.0 15.0 0.00 0.00 0.00 63
20220705132817 81 143 12.0 14.0 0.00 0.00 0.00 63
20220705131825 80 142 10.0 11.0 0.00 0.00 0.00 65
20220705130831 80 152 12.0 13.0 0.00 0.00 0.00 65
20220705124826 80 134 8.0 8.0 0.00 0.00 0.00 66
20220705123823 79 135 9.0 9.0 0.00 0.00 0.00 67
20220705122821 78 132 8.0 10.0 0.00 0.00 0.00 68
20220705121820 78 129 8.0 11.0 0.00 0.00 0.00 68
20220705120816 77 120 7.0 8.0 0.00 0.00 0.00 67
20220705115824 77 134 8.0 10.0 0.00 0.00 0.00 66
20220705114817 77 113 8.0 10.0 0.00 0.00 0.00 63
20220705112817 77 113 8.0 8.0 0.00 0.00 0.00 60
20220705111822 77 120 6.0 7.0 0.00 0.00 0.00 58
20220705110820 77 120 6.0 8.0 0.00 0.00 0.00 58
20220705105820 77 118 6.0 7.0 0.00 0.00 0.00 57
20220705104830 77 119 6.0 7.0 0.00 0.00 0.00 56
20220705103819 77 113 6.0 6.0 0.00 0.00 0.00 56
20220705102828 77 113 5.0 6.0 0.00 0.00 0.00 56
20220705101817 78 128 6.0 6.0 0.00 0.00 0.00 56
20220705100823 78 113 9.0 9.0 0.00 0.00 0.00 56
20220705095821 78 113 6.0 8.0 0.00 0.00 0.00 56
20220705094820 78 113 6.0 7.0 0.00 0.00 0.00 56
20220705093818 78 106 5.0 6.0 0.00 0.00 0.00 56
20220705092820 78 113 4.0 4.0 0.00 0.00 0.00 56
20220705091824 78 123 4.0 5.0 0.00 0.00 0.00 56
20220705090817 78 127 3.0 4.0 0.00 0.00 0.00 56
20220705085825 78 113 4.0 4.0 0.00 0.00 0.00 55
20220705084823 78 113 4.0 5.0 0.00 0.00 0.00 55
20220705083822 78 113 4.0 5.0 0.00 0.00 0.00 54
20220705082818 79 112 4.0 4.0 0.00 0.00 0.00 54
20220705081821 79 113 4.0 5.0 0.00 0.00 0.00 54
20220705080828 79 113 5.0 6.0 0.00 0.00 0.00 54